Time,TemperatureF,DewpointF,PressureIn,WindDirection,WindDirectionDegrees,WindSpeedMPH,WindSpeedGustMPH,Humidity,HourlyPrecipIn,Conditions,Clouds,dailyrainin,SoftwareType,DateUTC
2013-09-23 00:02:00,45.5,42.9,30.03,NNE,22,0.0,0.0,91,0.00,,,0.00,WUHU21623XXSP,2013-09-23 05:02:00,
2013-09-23 00:07:00,45.5,42.9,30.03,SW,225,0.0,0.0,91,0.00,,,0.00,WUHU21623XXSP,2013-09-23 05:07:00,
2013-09-23 00:12:00,45.3,42.7,30.03,SE,135,0.0,0.0,91,0.00,,,0.00,WUHU21623XXSP,2013-09-23 05:12:00,
2013-09-23 00:17:00,45.3,42.7,30.02,NNE,22,0.0,0.0,91,0.00,,,0.00,WUHU21623XXSP,2013-09-23 05:17:00,
2013-09-23 00:22:00,45.1,42.5,30.03,SE,135,0.0,0.0,91,0.00,,,0.00,WUHU21623XXSP,2013-09-23 05:22:00,
2013-09-23 00:27:00,45.1,42.5,30.02,SSE,157,0.0,0.7,91,0.00,,,0.00,WUHU21623XXSP,2013-09-23 05:27:00,
2013-09-23 00:32:00,45.1,42.8,30.02,North,0,0.0,0.7,92,0.00,,,0.00,WUHU21623XXSP,2013-09-23 05:32:00,
2013-09-23 00:37:00,45.1,42.8,30.02,SW,225,0.0,0.0,92,0.00,,,0.00,WUHU21623XXSP,2013-09-23 05:37:00,
2013-09-23 00:42:00,45.1,42.8,30.03,SSW,202,0.0,0.0,92,0.00,,,0.00,WUHU21623XXSP,2013-09-23 05:42:00,
2013-09-23 00:47:00,45.1,42.8,30.03,SSW,202,0.0,1.6,92,0.00,,,0.00,WUHU21623XXSP,2013-09-23 05:47:00,
2013-09-23 00:52:00,45.1,42.8,30.03,SSW,202,0.0,1.6,92,0.00,,,0.00,WUHU21623XXSP,2013-09-23 05:52:00,
2013-09-23 00:57:00,45.0,42.7,30.03,SE,135,0.0,0.0,92,0.00,,,0.00,WUHU21623XXSP,2013-09-23 05:57:00,
2013-09-23 01:02:00,44.8,42.5,30.03,ESE,112,0.0,0.0,92,0.00,,,0.00,WUHU21623XXSP,2013-09-23 06:02:00,
2013-09-23 01:07:00,44.6,42.3,30.03,ENE,67,0.0,0.0,92,0.00,,,0.00,WUHU21623XXSP,2013-09-23 06:07:00,
2013-09-23 01:12:00,44.4,42.4,30.02,SSW,202,0.0,0.0,93,0.00,,,0.00,WUHU21623XXSP,2013-09-23 06:12:00,
2013-09-23 01:17:00,44.6,42.6,30.03,SE,135,0.0,0.0,93,0.00,,,0.00,WUHU21623XXSP,2013-09-23 06:17:00,
2013-09-23 01:22:00,44.4,42.4,30.03,SE,135,0.0,0.0,93,0.00,,,0.00,WUHU21623XXSP,2013-09-23 06:22:00,
2013-09-23 01:27:00,44.4,42.4,30.03,South,180,0.0,0.0,93,0.00,,,0.00,WUHU21623XXSP,2013-09-23 06:27:00,
2013-09-23 01:32:00,44.2,42.2,30.03,ESE,112,0.0,0.0,93,0.00,,,0.00,WUHU21623XXSP,2013-09-23 06:32:00,
2013-09-23 01:37:00,44.1,42.1,30.03,ENE,67,0.0,0.0,93,0.00,,,0.00,WUHU21623XXSP,2013-09-23 06:37:00,
2013-09-23 01:42:00,43.9,41.9,30.03,ENE,67,0.0,0.0,93,0.00,,,0.00,WUHU21623XXSP,2013-09-23 06:42:00,
2013-09-23 01:47:00,43.9,41.9,30.03,ENE,67,0.0,0.0,93,0.00,,,0.00,WUHU21623XXSP,2013-09-23 06:47:00,
2013-09-23 01:52:00,43.7,41.7,30.03,ENE,67,0.0,0.0,93,0.00,,,0.00,WUHU21623XXSP,2013-09-23 06:52:00,
2013-09-23 01:57:00,43.9,41.9,30.03,WNW,292,0.0,0.0,93,0.00,,,0.00,WUHU21623XXSP,2013-09-23 06:57:00,
2013-09-23 02:02:00,43.7,41.7,30.03,ESE,112,0.0,0.0,93,0.00,,,0.00,WUHU21623XXSP,2013-09-23 07:02:00,
2013-09-23 02:07:00,43.7,41.7,30.03,ESE,112,0.0,0.0,93,0.00,,,0.00,WUHU21623XXSP,2013-09-23 07:07:00,
2013-09-23 02:12:00,43.7,42.0,30.02,ESE,112,0.0,0.0,94,0.00,,,0.00,WUHU21623XXSP,2013-09-23 07:12:00,
2013-09-23 02:17:00,43.5,41.8,30.03,ESE,112,0.0,0.0,94,0.00,,,0.00,WUHU21623XXSP,2013-09-23 07:17:00,
2013-09-23 02:22:00,43.3,41.6,30.03,SSE,157,0.0,0.0,94,0.00,,,0.00,WUHU21623XXSP,2013-09-23 07:22:00,
2013-09-23 02:27:00,43.3,41.6,30.03,SSW,202,0.0,0.0,94,0.00,,,0.00,WUHU21623XXSP,2013-09-23 07:27:00,
2013-09-23 02:32:00,43.3,41.6,30.03,North,0,0.0,0.0,94,0.00,,,0.00,WUHU21623XXSP,2013-09-23 07:32:00,
2013-09-23 02:38:00,43.5,41.8,30.04,ENE,67,0.0,0.0,94,0.00,,,0.00,WUHU21623XXSP,2013-09-23 07:38:00,
2013-09-23 02:43:00,43.5,41.8,30.04,ENE,67,0.0,0.0,94,0.00,,,0.00,WUHU21623XXSP,2013-09-23 07:43:00,
2013-09-23 02:48:00,43.5,41.8,30.03,ENE,67,0.0,0.0,94,0.00,,,0.00,WUHU21623XXSP,2013-09-23 07:48:00,
2013-09-23 02:52:00,43.3,41.6,30.03,ENE,67,0.0,0.0,94,0.00,,,0.00,WUHU21623XXSP,2013-09-23 07:52:00,
2013-09-23 02:57:00,43.2,41.5,30.03,ENE,67,0.0,0.0,94,0.00,,,0.00,WUHU21623XXSP,2013-09-23 07:57:00,
2013-09-23 03:02:00,43.2,41.5,30.03,ENE,67,0.0,0.0,94,0.00,,,0.00,WUHU21623XXSP,2013-09-23 08:02:00,
2013-09-23 03:08:00,43.2,41.5,30.04,ENE,67,0.0,0.0,94,0.00,,,0.00,WUHU21623XXSP,2013-09-23 08:08:00,
2013-09-23 03:12:00,43.0,41.3,30.04,ENE,67,0.0,0.0,94,0.00,,,0.00,WUHU21623XXSP,2013-09-23 08:12:00,
2013-09-23 03:18:00,43.0,41.3,30.04,NE,45,0.0,0.0,94,0.00,,,0.00,WUHU21623XXSP,2013-09-23 08:18:00,
2013-09-23 03:23:00,43.0,41.3,30.04,NE,45,0.0,0.0,94,0.00,,,0.00,WUHU21623XXSP,2013-09-23 08:23:00,
2013-09-23 03:27:00,43.0,41.3,30.04,NE,45,0.0,0.0,94,0.00,,,0.00,WUHU21623XXSP,2013-09-23 08:27:00,
2013-09-23 03:32:00,43.0,41.3,30.04,NE,45,0.0,0.0,94,0.00,,,0.00,WUHU21623XXSP,2013-09-23 08:32:00,
2013-09-23 03:37:00,42.8,41.4,30.04,NE,45,0.0,0.0,95,0.00,,,0.00,WUHU21623XXSP,2013-09-23 08:37:00,
2013-09-23 03:42:00,42.6,41.2,30.04,NE,45,0.0,0.0,95,0.00,,,0.00,WUHU21623XXSP,2013-09-23 08:42:00,
2013-09-23 03:48:00,42.6,41.2,30.04,NE,45,0.0,0.0,95,0.00,,,0.00,WUHU21623XXSP,2013-09-23 08:48:00,
2013-09-23 03:52:00,42.4,41.0,30.04,NE,45,0.0,0.0,95,0.00,,,0.00,WUHU21623XXSP,2013-09-23 08:52:00,
2013-09-23 03:57:00,42.4,41.0,30.04,NE,45,0.0,0.0,95,0.00,,,0.00,WUHU21623XXSP,2013-09-23 08:57:00,
2013-09-23 04:02:00,42.4,41.0,30.05,ESE,112,0.0,0.0,95,0.00,,,0.00,WUHU21623XXSP,2013-09-23 09:02:00,
2013-09-23 04:07:00,42.4,41.0,30.04,ESE,112,0.0,0.0,95,0.00,,,0.00,WUHU21623XXSP,2013-09-23 09:07:00,
2013-09-23 04:12:00,42.1,40.7,30.05,ESE,112,0.0,0.0,95,0.00,,,0.00,WUHU21623XXSP,2013-09-23 09:12:00,
2013-09-23 04:17:00,41.9,40.5,30.05,ESE,112,0.0,0.0,95,0.00,,,0.00,WUHU21623XXSP,2013-09-23 09:17:00,
2013-09-23 04:22:00,41.7,40.3,30.04,ESE,112,0.0,0.0,95,0.00,,,0.00,WUHU21623XXSP,2013-09-23 09:22:00,
2013-09-23 04:27:00,41.5,40.1,30.05,East,90,0.0,0.0,95,0.00,,,0.00,WUHU21623XXSP,2013-09-23 09:27:00,
2013-09-23 04:32:00,41.5,40.1,30.05,East,90,0.0,0.0,95,0.00,,,0.00,WUHU21623XXSP,2013-09-23 09:32:00,
2013-09-23 04:37:00,41.4,40.0,30.05,East,90,0.0,0.0,95,0.00,,,0.00,WUHU21623XXSP,2013-09-23 09:37:00,
2013-09-23 04:42:00,41.2,39.8,30.05,East,90,0.0,0.0,95,0.00,,,0.00,WUHU21623XXSP,2013-09-23 09:42:00,
2013-09-23 04:47:00,41.4,40.0,30.05,East,90,0.0,0.0,95,0.00,,,0.00,WUHU21623XXSP,2013-09-23 09:47:00,
2013-09-23 04:52:00,41.5,40.1,30.05,East,90,0.0,0.0,95,0.00,,,0.00,WUHU21623XXSP,2013-09-23 09:52:00,
2013-09-23 04:57:00,41.4,40.0,30.05,East,90,0.0,0.0,95,0.00,,,0.00,WUHU21623XXSP,2013-09-23 09:57:00,
2013-09-23 05:02:00,41.4,40.3,30.05,East,90,0.0,0.0,96,0.00,,,0.00,WUHU21623XXSP,2013-09-23 10:02:00,
2013-09-23 05:07:00,41.5,40.1,30.05,ESE,112,0.0,0.0,95,0.00,,,0.00,WUHU21623XXSP,2013-09-23 10:07:00,
2013-09-23 05:12:00,41.5,40.3,30.05,ESE,112,0.0,0.0,96,0.00,,,0.00,WUHU21623XXSP,2013-09-23 10:12:00,
2013-09-23 05:17:00,41.4,40.3,30.05,ESE,112,0.0,0.0,96,0.00,,,0.00,WUHU21623XXSP,2013-09-23 10:17:00,
2013-09-23 05:22:00,41.4,40.3,30.05,ESE,112,0.0,0.0,96,0.00,,,0.00,WUHU21623XXSP,2013-09-23 10:22:00,
2013-09-23 05:27:00,41.5,40.3,30.05,SE,135,0.0,0.0,96,0.00,,,0.00,WUHU21623XXSP,2013-09-23 10:27:00,
2013-09-23 05:32:00,41.7,40.5,30.05,SE,135,0.0,0.0,96,0.00,,,0.00,WUHU21623XXSP,2013-09-23 10:32:00,
2013-09-23 05:37:00,41.5,40.3,30.05,ESE,112,0.0,0.0,96,0.00,,,0.00,WUHU21623XXSP,2013-09-23 10:37:00,
2013-09-23 05:42:00,41.4,40.3,30.06,ESE,112,0.0,0.0,96,0.00,,,0.00,WUHU21623XXSP,2013-09-23 10:42:00,
2013-09-23 05:47:00,41.4,40.3,30.06,ESE,112,0.0,0.0,96,0.00,,,0.00,WUHU21623XXSP,2013-09-23 10:47:00,
2013-09-23 05:52:00,41.5,40.3,30.06,East,90,0.0,0.0,96,0.00,,,0.00,WUHU21623XXSP,2013-09-23 10:52:00,
2013-09-23 05:57:00,41.5,40.3,30.06,East,90,0.0,0.0,96,0.00,,,0.00,WUHU21623XXSP,2013-09-23 10:57:00,
2013-09-23 06:02:00,41.7,40.5,30.06,East,90,0.0,0.0,96,0.00,,,0.00,WUHU21623XXSP,2013-09-23 11:02:00,
2013-09-23 06:07:00,41.5,40.3,30.06,East,90,0.0,0.0,96,0.00,,,0.00,WUHU21623XXSP,2013-09-23 11:07:00,
2013-09-23 06:12:00,41.5,40.3,30.07,ESE,112,0.0,0.0,96,0.00,,,0.00,WUHU21623XXSP,2013-09-23 11:12:00,
2013-09-23 06:17:00,41.5,40.3,30.07,ESE,112,0.0,0.0,96,0.00,,,0.00,WUHU21623XXSP,2013-09-23 11:17:00,
2013-09-23 06:22:00,41.4,40.3,30.06,ESE,112,0.0,0.0,96,0.00,,,0.00,WUHU21623XXSP,2013-09-23 11:22:00,
2013-09-23 06:27:00,41.2,40.1,30.06,ESE,112,0.0,0.0,96,0.00,,,0.00,WUHU21623XXSP,2013-09-23 11:27:00,
2013-09-23 06:32:00,41.2,40.1,30.07,ESE,112,0.0,0.0,96,0.00,,,0.00,WUHU21623XXSP,2013-09-23 11:32:00,
2013-09-23 06:37:00,41.2,40.1,30.07,ESE,112,0.0,0.0,96,0.00,,,0.00,WUHU21623XXSP,2013-09-23 11:37:00,
2013-09-23 06:42:00,41.0,39.9,30.07,ESE,112,0.0,0.0,96,0.00,,,0.00,WUHU21623XXSP,2013-09-23 11:42:00,
2013-09-23 06:47:00,41.2,40.1,30.07,ESE,112,0.0,0.0,96,0.00,,,0.00,WUHU21623XXSP,2013-09-23 11:47:00,
2013-09-23 06:52:00,41.2,40.1,30.06,ESE,112,0.0,0.0,96,0.00,,,0.00,WUHU21623XXSP,2013-09-23 11:52:00,
2013-09-23 06:57:00,41.0,39.9,30.07,ESE,112,0.0,0.0,96,0.00,,,0.00,WUHU21623XXSP,2013-09-23 11:57:00,
2013-09-23 07:02:00,40.8,39.7,30.06,ESE,112,0.0,0.0,96,0.00,,,0.00,WUHU21623XXSP,2013-09-23 12:02:00,
2013-09-23 07:07:00,41.0,39.9,30.07,ESE,112,0.0,0.0,96,0.00,,,0.00,WUHU21623XXSP,2013-09-23 12:07:00,
2013-09-23 07:12:00,41.0,39.9,30.07,ESE,112,0.0,0.0,96,0.00,,,0.00,WUHU21623XXSP,2013-09-23 12:12:00,
2013-09-23 07:17:00,41.0,39.9,30.07,ESE,112,0.0,0.0,96,0.00,,,0.00,WUHU21623XXSP,2013-09-23 12:17:00,
2013-09-23 07:22:00,41.0,39.9,30.07,ESE,112,0.0,0.0,96,0.00,,,0.00,WUHU21623XXSP,2013-09-23 12:22:00,
2013-09-23 07:27:00,41.2,40.1,30.07,ESE,112,0.0,0.0,96,0.00,,,0.00,WUHU21623XXSP,2013-09-23 12:27:00,
2013-09-23 07:32:00,41.5,40.3,30.07,ESE,112,0.0,0.0,96,0.00,,,0.00,WUHU21623XXSP,2013-09-23 12:32:00,
2013-09-23 07:37:00,42.1,40.9,30.07,ESE,112,0.0,0.0,96,0.00,,,0.00,WUHU21623XXSP,2013-09-23 12:37:00,
2013-09-23 07:42:00,42.4,41.2,30.07,ESE,112,0.0,0.0,96,0.00,,,0.00,WUHU21623XXSP,2013-09-23 12:42:00,
2013-09-23 07:47:00,42.6,41.4,30.07,ESE,112,0.0,0.0,96,0.00,,,0.00,WUHU21623XXSP,2013-09-23 12:47:00,
2013-09-23 07:52:00,43.0,41.8,30.07,ESE,112,0.0,0.0,96,0.00,,,0.00,WUHU21623XXSP,2013-09-23 12:52:00,
2013-09-23 07:57:00,43.5,42.6,30.06,ESE,112,0.0,0.0,97,0.00,,,0.00,WUHU21623XXSP,2013-09-23 12:57:00,
2013-09-23 08:02:00,44.2,43.3,30.06,South,180,0.0,0.0,97,0.00,,,0.00,WUHU21623XXSP,2013-09-23 13:02:00,
2013-09-23 08:07:00,44.8,43.9,30.06,SSW,202,0.0,2.0,97,0.00,,,0.00,WUHU21623XXSP,2013-09-23 13:07:00,
2013-09-23 08:12:00,45.3,44.4,30.06,SSW,202,0.0,2.0,97,0.00,,,0.00,WUHU21623XXSP,2013-09-23 13:12:00,
2013-09-23 08:17:00,46.2,45.3,30.06,SE,135,0.0,0.0,97,0.00,,,0.00,WUHU21623XXSP,2013-09-23 13:17:00,
2013-09-23 08:22:00,47.1,45.9,30.06,SSW,202,0.0,0.0,96,0.00,,,0.00,WUHU21623XXSP,2013-09-23 13:22:00,
2013-09-23 08:27:00,48.6,47.7,30.06,SSE,157,0.0,0.0,97,0.00,,,0.00,WUHU21623XXSP,2013-09-23 13:27:00,
2013-09-23 08:32:00,49.3,48.1,30.06,SW,225,0.0,0.0,96,0.00,,,0.00,WUHU21623XXSP,2013-09-23 13:32:00,
2013-09-23 08:37:00,50.2,49.0,30.06,SSE,157,0.0,1.8,96,0.00,,,0.00,WUHU21623XXSP,2013-09-23 13:37:00,
2013-09-23 08:42:00,51.1,49.9,30.06,NE,45,1.3,2.2,96,0.00,,,0.00,WUHU21623XXSP,2013-09-23 13:42:00,
2013-09-23 08:47:00,52.2,50.7,30.06,WSW,247,0.0,2.2,95,0.00,,,0.00,WUHU21623XXSP,2013-09-23 13:47:00,
2013-09-23 08:52:00,52.9,51.4,30.06,NW,315,0.0,2.2,95,0.00,,,0.00,WUHU21623XXSP,2013-09-23 13:52:00,
2013-09-23 08:57:00,53.8,52.3,30.06,NNW,337,0.0,3.6,95,0.00,,,0.00,WUHU21623XXSP,2013-09-23 13:57:00,
2013-09-23 09:02:00,54.7,52.9,30.05,NNE,22,0.0,3.6,94,0.00,,,0.00,WUHU21623XXSP,2013-09-23 14:02:00,
2013-09-23 09:07:00,55.9,54.1,30.06,SE,135,0.0,2.5,94,0.00,,,0.00,WUHU21623XXSP,2013-09-23 14:07:00,
2013-09-23 09:12:00,56.8,54.4,30.05,SW,225,0.0,2.5,92,0.00,,,0.00,WUHU21623XXSP,2013-09-23 14:12:00,
2013-09-23 09:17:00,57.2,54.5,30.06,North,0,0.0,3.1,91,0.00,,,0.00,WUHU21623XXSP,2013-09-23 14:17:00,
2013-09-23 09:22:00,58.1,54.7,30.06,SSW,202,1.3,3.1,89,0.00,,,0.00,WUHU21623XXSP,2013-09-23 14:22:00,
2013-09-23 09:27:00,58.6,54.9,30.06,SSE,157,0.0,2.2,88,0.00,,,0.00,WUHU21623XXSP,2013-09-23 14:27:00,
2013-09-23 09:32:00,59.4,55.4,30.06,NNE,22,0.0,4.0,87,0.00,,,0.00,WUHU21623XXSP,2013-09-23 14:32:00,
2013-09-23 09:37:00,59.2,54.2,30.07,South,180,0.0,8.1,83,0.00,,,0.00,WUHU21623XXSP,2013-09-23 14:37:00,
2013-09-23 09:42:00,59.2,53.9,30.07,WSW,247,1.3,8.1,82,0.00,,,0.00,WUHU21623XXSP,2013-09-23 14:42:00,
2013-09-23 09:47:00,59.5,53.5,30.06,SE,135,1.8,9.2,80,0.00,,,0.00,WUHU21623XXSP,2013-09-23 14:47:00,
2013-09-23 09:52:00,59.5,53.5,30.07,WNW,292,0.0,9.2,80,0.00,,,0.00,WUHU21623XXSP,2013-09-23 14:52:00,
2013-09-23 09:57:00,60.6,53.9,30.07,SSW,202,4.9,7.6,78,0.00,,,0.00,WUHU21623XXSP,2013-09-23 14:57:00,
2013-09-23 10:02:00,60.6,53.5,30.06,ENE,67,3.8,4.9,77,0.00,,,0.00,WUHU21623XXSP,2013-09-23 15:02:00,
2013-09-23 10:07:00,61.2,54.1,30.07,SSW,202,4.0,5.4,77,0.00,,,0.00,WUHU21623XXSP,2013-09-23 15:07:00,
2013-09-23 10:12:00,60.4,52.6,30.07,SSW,202,7.6,11.9,75,0.00,,,0.00,WUHU21623XXSP,2013-09-23 15:12:00,
2013-09-23 10:17:00,59.7,51.9,30.07,ESE,112,4.3,11.9,75,0.00,,,0.00,WUHU21623XXSP,2013-09-23 15:17:00,
2013-09-23 10:22:00,60.6,52.4,30.07,South,180,2.7,8.3,74,0.00,,,0.00,WUHU21623XXSP,2013-09-23 15:22:00,
2013-09-23 10:27:00,61.3,53.1,30.07,SSW,202,3.4,9.8,74,0.00,,,0.00,WUHU21623XXSP,2013-09-23 15:27:00,
2013-09-23 10:32:00,62.4,54.2,30.07,North,0,3.6,9.8,74,0.00,,,0.00,WUHU21623XXSP,2013-09-23 15:32:00,
2013-09-23 10:37:00,61.5,52.6,30.07,ESE,112,1.1,3.6,72,0.00,,,0.00,WUHU21623XXSP,2013-09-23 15:37:00,
2013-09-23 10:42:00,62.2,53.2,30.07,SW,225,0.0,4.7,72,0.00,,,0.00,WUHU21623XXSP,2013-09-23 15:42:00,
2013-09-23 10:47:00,62.2,52.5,30.06,SSE,157,0.0,7.8,70,0.00,,,0.00,WUHU21623XXSP,2013-09-23 15:47:00,
2013-09-23 10:52:00,62.4,52.6,30.07,SSE,157,3.6,7.8,70,0.00,,,0.00,WUHU21623XXSP,2013-09-23 15:52:00,
2013-09-23 10:57:00,62.4,52.2,30.07,East,90,0.0,6.9,69,0.00,,,0.00,WUHU21623XXSP,2013-09-23 15:57:00,
2013-09-23 11:02:00,61.5,51.8,30.07,South,180,4.5,5.4,70,0.00,,,0.00,WUHU21623XXSP,2013-09-23 16:02:00,
2013-09-23 11:07:00,62.4,52.6,30.07,SE,135,0.0,6.3,70,0.00,,,0.00,WUHU21623XXSP,2013-09-23 16:07:00,
2013-09-23 11:12:00,64.0,53.4,30.07,NNW,337,1.6,6.3,68,0.00,,,0.00,WUHU21623XXSP,2013-09-23 16:12:00,
2013-09-23 11:17:00,63.5,52.5,30.07,SSE,157,4.7,6.3,67,0.00,,,0.00,WUHU21623XXSP,2013-09-23 16:17:00,
2013-09-23 11:22:00,61.2,50.7,30.07,SW,225,6.7,7.4,68,0.00,,,0.00,WUHU21623XXSP,2013-09-23 16:22:00,
2013-09-23 11:27:00,62.4,52.6,30.06,South,180,5.4,7.4,70,0.00,,,0.00,WUHU21623XXSP,2013-09-23 16:27:00,
2013-09-23 11:32:00,62.8,52.6,30.07,NW,315,0.0,6.7,69,0.00,,,0.00,WUHU21623XXSP,2013-09-23 16:32:00,
2013-09-23 11:37:00,63.3,52.7,30.06,South,180,2.2,4.9,68,0.00,,,0.00,WUHU21623XXSP,2013-09-23 16:37:00,
2013-09-23 11:42:00,63.7,52.7,30.06,SSW,202,1.1,7.4,67,0.00,,,0.00,WUHU21623XXSP,2013-09-23 16:42:00,
2013-09-23 11:47:00,64.2,52.7,30.06,SSW,202,4.9,7.4,66,0.00,,,0.00,WUHU21623XXSP,2013-09-23 16:47:00,
2013-09-23 11:52:00,63.3,51.9,30.06,SE,135,1.3,6.0,66,0.00,,,0.00,WUHU21623XXSP,2013-09-23 16:52:00,
2013-09-23 11:57:00,63.7,52.3,30.06,ENE,67,1.8,3.8,66,0.00,,,0.00,WUHU21623XXSP,2013-09-23 16:57:00,
2013-09-23 12:02:00,64.9,52.5,30.06,WNW,292,2.5,5.4,64,0.00,,,0.00,WUHU21623XXSP,2013-09-23 17:02:00,
2013-09-23 12:07:00,64.8,52.0,30.06,NNW,337,2.5,5.4,63,0.00,,,0.00,WUHU21623XXSP,2013-09-23 17:07:00,
2013-09-23 12:12:00,64.6,51.8,30.05,ENE,67,3.1,9.2,63,0.00,,,0.00,WUHU21623XXSP,2013-09-23 17:12:00,
2013-09-23 12:17:00,65.3,52.9,30.05,NW,315,1.3,9.2,64,0.00,,,0.00,WUHU21623XXSP,2013-09-23 17:17:00,
2013-09-23 12:22:00,66.0,53.1,30.05,South,180,3.6,3.8,63,0.00,,,0.00,WUHU21623XXSP,2013-09-23 17:22:00,
2013-09-23 12:27:00,66.6,53.3,30.05,West,270,0.9,4.5,62,0.00,,,0.00,WUHU21623XXSP,2013-09-23 17:27:00,
2013-09-23 12:32:00,66.7,52.9,30.05,WSW,247,2.2,4.5,61,0.00,,,0.00,WUHU21623XXSP,2013-09-23 17:32:00,
2013-09-23 12:37:00,66.0,52.7,30.05,NNE,22,3.8,8.3,62,0.00,,,0.00,WUHU21623XXSP,2013-09-23 17:37:00,
2013-09-23 12:42:00,65.7,52.4,30.05,South,180,5.6,8.3,62,0.00,,,0.00,WUHU21623XXSP,2013-09-23 17:42:00,
2013-09-23 12:47:00,65.7,52.4,30.04,SSW,202,3.8,7.4,62,0.00,,,0.00,WUHU21623XXSP,2013-09-23 17:47:00,
2013-09-23 12:52:00,65.5,51.7,30.04,SE,135,2.2,6.5,61,0.00,,,0.00,WUHU21623XXSP,2013-09-23 17:52:00,
2013-09-23 12:57:00,66.0,51.8,30.04,SW,225,2.9,6.5,60,0.00,,,0.00,WUHU21623XXSP,2013-09-23 17:57:00,
2013-09-23 13:02:00,66.2,52.9,30.04,SSW,202,4.0,7.4,62,0.00,,,0.00,WUHU21623XXSP,2013-09-23 18:02:00,
2013-09-23 13:07:00,66.2,52.9,30.04,SW,225,0.0,7.4,62,0.00,,,0.00,WUHU21623XXSP,2013-09-23 18:07:00,
2013-09-23 13:12:00,66.7,52.9,30.04,SSW,202,4.5,5.8,61,0.00,,,0.00,WUHU21623XXSP,2013-09-23 18:12:00,
2013-09-23 13:17:00,66.7,52.9,30.03,WNW,292,0.0,4.5,61,0.00,,,0.00,WUHU21623XXSP,2013-09-23 18:17:00,
2013-09-23 13:22:00,67.3,53.9,30.03,SE,135,4.7,4.7,62,0.00,,,0.00,WUHU21623XXSP,2013-09-23 18:22:00,
2013-09-23 13:27:00,66.0,52.2,30.02,North,0,1.1,6.5,61,0.00,,,0.00,WUHU21623XXSP,2013-09-23 18:27:00,
2013-09-23 13:32:00,66.9,53.1,30.02,SSE,157,1.8,6.5,61,0.00,,,0.00,WUHU21623XXSP,2013-09-23 18:32:00,
2013-09-23 13:37:00,67.6,52.8,30.02,East,90,0.0,5.4,59,0.00,,,0.00,WUHU21623XXSP,2013-09-23 18:37:00,
2013-09-23 13:42:00,66.9,52.1,30.01,South,180,2.5,6.3,59,0.00,,,0.00,WUHU21623XXSP,2013-09-23 18:42:00,
2013-09-23 13:47:00,66.7,52.4,30.02,SSW,202,8.1,8.1,60,0.00,,,0.00,WUHU21623XXSP,2013-09-23 18:47:00,
2013-09-23 13:52:00,66.6,52.3,30.02,SSW,202,0.0,8.1,60,0.00,,,0.00,WUHU21623XXSP,2013-09-23 18:52:00,
2013-09-23 13:57:00,67.1,52.3,30.01,SW,225,3.1,6.7,59,0.00,,,0.00,WUHU21623XXSP,2013-09-23 18:57:00,
2013-09-23 14:02:00,67.8,53.0,30.01,SSE,157,2.5,8.3,59,0.00,,,0.00,WUHU21623XXSP,2013-09-23 19:02:00,
2013-09-23 14:07:00,67.3,52.5,30.01,NE,45,2.9,8.3,59,0.00,,,0.00,WUHU21623XXSP,2013-09-23 19:07:00,
2013-09-23 14:12:00,67.8,53.0,30.01,West,270,2.0,6.5,59,0.00,,,0.00,WUHU21623XXSP,2013-09-23 19:12:00,
2013-09-23 14:17:00,68.0,52.7,30.01,SW,225,7.6,7.6,58,0.00,,,0.00,WUHU21623XXSP,2013-09-23 19:17:00,
2013-09-23 14:22:00,67.3,52.5,30.01,SSW,202,6.7,7.6,59,0.00,,,0.00,WUHU21623XXSP,2013-09-23 19:22:00,
2013-09-23 14:27:00,67.6,52.3,30.01,NNE,22,2.2,8.5,58,0.00,,,0.00,WUHU21623XXSP,2013-09-23 19:27:00,
2013-09-23 14:32:00,68.2,52.4,30.01,SE,135,5.4,8.5,57,0.00,,,0.00,WUHU21623XXSP,2013-09-23 19:32:00,
2013-09-23 14:37:00,67.6,52.3,30.01,NE,45,1.8,6.3,58,0.00,,,0.00,WUHU21623XXSP,2013-09-23 19:37:00,
2013-09-23 14:43:00,66.9,51.6,30.01,WNW,292,3.6,11.4,58,0.00,,,0.00,WUHU21623XXSP,2013-09-23 19:43:00,
2013-09-23 14:48:00,67.1,52.3,30.01,East,90,1.1,11.4,59,0.00,,,0.00,WUHU21623XXSP,2013-09-23 19:48:00,
2013-09-23 14:52:00,67.3,52.5,30.00,SE,135,2.0,10.3,59,0.00,,,0.00,WUHU21623XXSP,2013-09-23 19:52:00,
2013-09-23 14:57:00,67.6,53.3,30.00,NW,315,1.3,6.7,60,0.00,,,0.00,WUHU21623XXSP,2013-09-23 19:57:00,
2013-09-23 15:02:00,67.6,52.8,30.00,SSW,202,4.5,5.1,59,0.00,,,0.00,WUHU21623XXSP,2013-09-23 20:02:00,
2013-09-23 15:07:00,67.6,52.8,30.00,SW,225,4.0,5.1,59,0.00,,,0.00,WUHU21623XXSP,2013-09-23 20:07:00,
2013-09-23 15:12:00,67.6,52.8,30.00,NE,45,0.0,5.1,59,0.00,,,0.00,WUHU21623XXSP,2013-09-23 20:12:00,
2013-09-23 15:17:00,67.8,53.0,30.00,SW,225,0.0,4.9,59,0.00,,,0.00,WUHU21623XXSP,2013-09-23 20:17:00,
2013-09-23 15:22:00,67.3,52.5,30.00,SSE,157,3.6,9.4,59,0.00,,,0.00,WUHU21623XXSP,2013-09-23 20:22:00,
2013-09-23 15:27:00,66.7,52.4,30.00,North,0,3.4,9.4,60,0.00,,,0.00,WUHU21623XXSP,2013-09-23 20:27:00,
2013-09-23 15:33:00,66.2,51.9,30.00,SSE,157,2.0,6.5,60,0.00,,,0.00,WUHU21623XXSP,2013-09-23 20:33:00,
2013-09-23 15:38:00,66.2,52.4,30.00,ESE,112,1.8,5.8,61,0.00,,,0.00,WUHU21623XXSP,2013-09-23 20:38:00,
2013-09-23 15:43:00,67.1,53.3,29.99,NE,45,1.6,5.8,61,0.00,,,0.00,WUHU21623XXSP,2013-09-23 20:43:00,
2013-09-23 15:48:00,67.6,52.8,30.00,West,270,9.6,9.6,59,0.00,,,0.00,WUHU21623XXSP,2013-09-23 20:48:00,
2013-09-23 15:53:00,66.9,52.6,29.99,NE,45,4.0,9.6,60,0.00,,,0.00,WUHU21623XXSP,2013-09-23 20:53:00,
2013-09-23 15:58:00,67.1,53.3,29.99,SSE,157,3.1,9.4,61,0.00,,,0.00,WUHU21623XXSP,2013-09-23 20:58:00,
2013-09-23 16:03:00,67.3,52.5,29.99,West,270,2.9,6.3,59,0.00,,,0.00,WUHU21623XXSP,2013-09-23 21:03:00,
2013-09-23 16:08:00,67.6,52.8,29.99,WSW,247,1.6,7.6,59,0.00,,,0.00,WUHU21623XXSP,2013-09-23 21:08:00,
2013-09-23 16:13:00,67.1,52.8,29.99,South,180,2.0,7.8,60,0.00,,,0.00,WUHU21623XXSP,2013-09-23 21:13:00,
2013-09-23 16:18:00,67.3,53.5,29.99,NNE,22,0.0,8.7,61,0.00,,,0.00,WUHU21623XXSP,2013-09-23 21:18:00,
2013-09-23 16:23:00,67.3,53.5,29.99,SSW,202,2.2,8.7,61,0.00,,,0.00,WUHU21623XXSP,2013-09-23 21:23:00,
2013-09-23 16:28:00,67.1,52.8,29.99,North,0,0.0,6.3,60,0.00,,,0.00,WUHU21623XXSP,2013-09-23 21:28:00,
2013-09-23 16:33:00,66.9,52.1,29.99,ESE,112,2.0,9.2,59,0.00,,,0.00,WUHU21623XXSP,2013-09-23 21:33:00,
2013-09-23 16:38:00,66.6,52.3,29.99,ESE,112,1.1,9.2,60,0.00,,,0.00,WUHU21623XXSP,2013-09-23 21:38:00,
2013-09-23 16:43:00,65.5,51.7,29.99,East,90,4.0,6.9,61,0.00,,,0.00,WUHU21623XXSP,2013-09-23 21:43:00,
2013-09-23 16:48:00,64.9,51.6,29.99,SE,135,5.6,6.9,62,0.00,,,0.00,WUHU21623XXSP,2013-09-23 21:48:00,
2013-09-23 16:53:00,64.6,51.8,29.99,South,180,0.0,5.6,63,0.00,,,0.00,WUHU21623XXSP,2013-09-23 21:53:00,
2013-09-23 16:58:00,64.0,51.2,29.99,NE,45,1.6,5.4,63,0.00,,,0.00,WUHU21623XXSP,2013-09-23 21:58:00,
2013-09-23 17:03:00,63.5,51.2,29.99,SSE,157,1.3,5.4,64,0.00,,,0.00,WUHU21623XXSP,2013-09-23 22:03:00,
2013-09-23 17:08:00,63.3,51.4,29.99,ESE,112,4.3,4.7,65,0.00,,,0.00,WUHU21623XXSP,2013-09-23 22:08:00,
2013-09-23 17:13:00,63.3,51.0,29.99,West,270,0.0,9.6,64,0.00,,,0.00,WUHU21623XXSP,2013-09-23 22:13:00,
2013-09-23 17:18:00,62.8,51.0,29.99,SSE,157,0.0,9.6,65,0.00,,,0.00,WUHU21623XXSP,2013-09-23 22:18:00,
2013-09-23 17:23:00,61.9,50.1,29.99,ENE,67,1.3,6.9,65,0.00,,,0.00,WUHU21623XXSP,2013-09-23 22:23:00,
2013-09-23 17:28:00,61.3,50.4,29.99,South,180,0.0,6.9,67,0.00,,,0.00,WUHU21623XXSP,2013-09-23 22:28:00,
2013-09-23 17:33:00,61.0,50.1,29.99,West,270,3.1,4.9,67,0.00,,,0.00,WUHU21623XXSP,2013-09-23 22:33:00,
2013-09-23 17:38:00,60.4,49.9,30.00,NW,315,1.3,4.9,68,0.00,,,0.00,WUHU21623XXSP,2013-09-23 22:38:00,
2013-09-23 17:43:00,60.1,49.6,30.00,SW,225,1.3,4.0,68,0.00,,,0.00,WUHU21623XXSP,2013-09-23 22:43:00,
2013-09-23 17:48:00,60.1,49.6,30.00,NE,45,0.0,5.4,68,0.00,,,0.00,WUHU21623XXSP,2013-09-23 22:48:00,
2013-09-23 17:53:00,59.5,49.1,30.00,SSW,202,4.3,6.0,68,0.00,,,0.00,WUHU21623XXSP,2013-09-23 22:53:00,
2013-09-23 17:58:00,59.4,49.4,30.00,NNE,22,0.0,6.9,69,0.00,,,0.00,WUHU21623XXSP,2013-09-23 22:58:00,
2013-09-23 18:03:00,58.8,48.8,30.00,West,270,1.8,6.9,69,0.00,,,0.00,WUHU21623XXSP,2013-09-23 23:03:00,
2013-09-23 18:08:00,58.8,48.8,30.00,SSE,157,3.8,4.9,69,0.00,,,0.00,WUHU21623XXSP,2013-09-23 23:08:00,
2013-09-23 18:13:00,58.6,49.0,30.00,SE,135,0.0,6.7,70,0.00,,,0.00,WUHU21623XXSP,2013-09-23 23:13:00,
2013-09-23 18:18:00,58.3,48.7,30.00,ENE,67,3.4,6.7,70,0.00,,,0.00,WUHU21623XXSP,2013-09-23 23:18:00,
2013-09-23 18:23:00,57.7,48.5,30.00,North,0,1.3,5.1,71,0.00,,,0.00,WUHU21623XXSP,2013-09-23 23:23:00,
2013-09-23 18:28:00,57.4,48.6,30.00,East,90,1.8,4.5,72,0.00,,,0.00,WUHU21623XXSP,2013-09-23 23:28:00,
2013-09-23 18:33:00,57.0,48.6,30.00,East,90,0.0,4.5,73,0.00,,,0.00,WUHU21623XXSP,2013-09-23 23:33:00,
2013-09-23 18:38:00,56.5,48.1,30.00,South,180,2.0,3.4,73,0.00,,,0.00,WUHU21623XXSP,2013-09-23 23:38:00,
2013-09-23 18:43:00,56.3,48.3,30.00,South,180,0.0,3.4,74,0.00,,,0.00,WUHU21623XXSP,2013-09-23 23:43:00,
2013-09-23 18:48:00,55.9,48.2,30.00,SE,135,0.0,4.0,75,0.00,,,0.00,WUHU21623XXSP,2013-09-23 23:48:00,
2013-09-23 18:53:00,55.6,48.0,30.00,SSE,157,1.6,4.0,75,0.00,,,0.00,WUHU21623XXSP,2013-09-23 23:53:00,
2013-09-23 18:58:00,55.2,47.9,30.00,ESE,112,0.0,5.4,76,0.00,,,0.00,WUHU21623XXSP,2013-09-23 23:58:00,
2013-09-23 19:03:00,54.7,47.4,30.00,ESE,112,0.0,5.4,76,0.00,,,0.00,WUHU21623XXSP,2013-09-24 00:03:00,
2013-09-23 19:08:00,54.5,47.6,30.00,SSW,202,2.5,3.6,77,0.00,,,0.00,WUHU21623XXSP,2013-09-24 00:08:00,
2013-09-23 19:13:00,54.3,47.7,30.00,WNW,292,0.0,2.5,78,0.00,,,0.00,WUHU21623XXSP,2013-09-24 00:13:00,
2013-09-23 19:18:00,54.0,47.4,30.00,ENE,67,0.0,1.3,78,0.00,,,0.00,WUHU21623XXSP,2013-09-24 00:18:00,
2013-09-23 19:23:00,53.4,47.2,30.00,West,270,0.0,2.2,79,0.00,,,0.00,WUHU21623XXSP,2013-09-24 00:23:00,
2013-09-23 19:28:00,53.4,47.2,30.00,South,180,0.0,2.2,79,0.00,,,0.00,WUHU21623XXSP,2013-09-24 00:28:00,
2013-09-23 19:33:00,53.2,47.3,30.00,South,180,0.0,2.0,80,0.00,,,0.00,WUHU21623XXSP,2013-09-24 00:33:00,
2013-09-23 19:38:00,52.9,47.0,30.00,ENE,67,0.0,2.0,80,0.00,,,0.00,WUHU21623XXSP,2013-09-24 00:38:00,
2013-09-23 19:43:00,52.9,47.4,30.00,South,180,0.0,2.5,81,0.00,,,0.00,WUHU21623XXSP,2013-09-24 00:43:00,
2013-09-23 19:48:00,52.7,47.2,30.01,North,0,0.0,2.9,81,0.00,,,0.00,WUHU21623XXSP,2013-09-24 00:48:00,
2013-09-23 19:53:00,52.5,47.3,30.00,SSW,202,0.0,2.9,82,0.00,,,0.00,WUHU21623XXSP,2013-09-24 00:53:00,
2013-09-23 19:58:00,52.3,47.1,30.01,WSW,247,0.0,2.2,82,0.00,,,0.00,WUHU21623XXSP,2013-09-24 00:58:00,
2013-09-23 20:03:00,52.3,47.4,30.01,SW,225,0.0,2.5,83,0.00,,,0.00,WUHU21623XXSP,2013-09-24 01:03:00,
2013-09-23 20:08:00,52.2,47.3,30.01,ESE,112,1.1,3.1,83,0.00,,,0.00,WUHU21623XXSP,2013-09-24 01:08:00,
2013-09-23 20:13:00,52.0,47.5,30.01,South,180,0.0,3.1,85,0.00,,,0.00,WUHU21623XXSP,2013-09-24 01:13:00,
2013-09-23 20:18:00,51.6,47.1,30.01,SE,135,0.0,2.7,85,0.00,,,0.00,WUHU21623XXSP,2013-09-24 01:18:00,
2013-09-23 20:23:00,51.6,47.4,30.01,SSE,157,0.0,2.7,86,0.00,,,0.00,WUHU21623XXSP,2013-09-24 01:23:00,
2013-09-23 20:28:00,51.4,47.2,30.01,SSW,202,0.0,0.0,86,0.00,,,0.00,WUHU21623XXSP,2013-09-24 01:28:00,
2013-09-23 20:33:00,51.3,47.1,30.01,South,180,0.0,1.6,86,0.00,,,0.00,WUHU21623XXSP,2013-09-24 01:33:00,
2013-09-23 20:38:00,51.3,47.1,30.01,SE,135,0.0,1.6,86,0.00,,,0.00,WUHU21623XXSP,2013-09-24 01:38:00,
2013-09-23 20:43:00,50.9,47.0,30.01,East,90,0.0,1.3,87,0.00,,,0.00,WUHU21623XXSP,2013-09-24 01:43:00,
2013-09-23 20:48:00,50.9,47.0,30.01,ENE,67,0.0,1.3,87,0.00,,,0.00,WUHU21623XXSP,2013-09-24 01:48:00,
2013-09-23 20:53:00,50.7,46.8,30.01,East,90,0.0,0.0,87,0.00,,,0.00,WUHU21623XXSP,2013-09-24 01:53:00,
2013-09-23 20:58:00,50.5,46.9,30.01,SE,135,0.0,0.0,88,0.00,,,0.00,WUHU21623XXSP,2013-09-24 01:58:00,
2013-09-23 21:03:00,50.4,46.8,30.01,SE,135,0.0,0.0,88,0.00,,,0.00,WUHU21623XXSP,2013-09-24 02:03:00,
2013-09-23 21:08:00,50.2,46.6,30.01,SSE,157,0.0,0.0,88,0.00,,,0.00,WUHU21623XXSP,2013-09-24 02:08:00,
2013-09-23 21:13:00,50.0,46.4,30.01,East,90,0.0,1.1,88,0.00,,,0.00,WUHU21623XXSP,2013-09-24 02:13:00,
2013-09-23 21:18:00,49.8,46.5,30.01,SSE,157,0.0,1.1,89,0.00,,,0.00,WUHU21623XXSP,2013-09-24 02:18:00,
2013-09-23 21:23:00,49.8,46.5,30.01,ESE,112,0.0,0.0,89,0.00,,,0.00,WUHU21623XXSP,2013-09-24 02:23:00,
2013-09-23 21:28:00,49.6,46.3,30.01,ESE,112,0.0,0.0,89,0.00,,,0.00,WUHU21623XXSP,2013-09-24 02:28:00,
2013-09-23 21:33:00,49.6,46.6,30.01,SE,135,0.0,0.0,90,0.00,,,0.00,WUHU21623XXSP,2013-09-24 02:33:00,
2013-09-23 21:38:00,49.3,46.3,30.01,SSE,157,0.0,0.0,90,0.00,,,0.00,WUHU21623XXSP,2013-09-24 02:38:00,
2013-09-23 21:43:00,49.1,46.1,30.01,SE,135,0.0,0.0,90,0.00,,,0.00,WUHU21623XXSP,2013-09-24 02:43:00,
2013-09-23 21:48:00,48.9,45.9,30.01,SE,135,0.0,0.0,90,0.00,,,0.00,WUHU21623XXSP,2013-09-24 02:48:00,
2013-09-23 21:53:00,48.7,45.7,30.01,SE,135,0.0,0.0,90,0.00,,,0.00,WUHU21623XXSP,2013-09-24 02:53:00,
2013-09-23 21:58:00,48.7,45.7,30.01,SE,135,0.0,0.0,90,0.00,,,0.00,WUHU21623XXSP,2013-09-24 02:58:00,
2013-09-23 22:03:00,48.7,46.0,30.01,SE,135,0.0,0.0,91,0.00,,,0.00,WUHU21623XXSP,2013-09-24 03:03:00,
2013-09-23 22:08:00,48.6,45.9,30.01,SE,135,0.0,0.0,91,0.00,,,0.00,WUHU21623XXSP,2013-09-24 03:08:00,
2013-09-23 22:13:00,48.4,45.7,30.01,SE,135,0.0,0.0,91,0.00,,,0.00,WUHU21623XXSP,2013-09-24 03:13:00,
2013-09-23 22:18:00,48.4,45.7,30.01,SE,135,0.0,0.0,91,0.00,,,0.00,WUHU21623XXSP,2013-09-24 03:18:00,
2013-09-23 22:23:00,48.2,45.8,30.01,SE,135,0.0,0.0,92,0.00,,,0.00,WUHU21623XXSP,2013-09-24 03:23:00,
2013-09-23 22:28:00,48.0,45.6,30.00,SE,135,0.0,0.0,92,0.00,,,0.00,WUHU21623XXSP,2013-09-24 03:28:00,
2013-09-23 22:33:00,48.0,45.6,30.00,SE,135,0.0,0.0,92,0.00,,,0.00,WUHU21623XXSP,2013-09-24 03:33:00,
2013-09-23 22:38:00,47.8,45.5,30.00,SE,135,0.0,0.0,92,0.00,,,0.00,WUHU21623XXSP,2013-09-24 03:38:00,
2013-09-23 22:43:00,47.5,45.2,30.00,SE,135,0.0,0.0,92,0.00,,,0.00,WUHU21623XXSP,2013-09-24 03:43:00,
2013-09-23 22:48:00,47.3,45.0,30.00,SE,135,0.0,0.0,92,0.00,,,0.00,WUHU21623XXSP,2013-09-24 03:48:00,
2013-09-23 22:53:00,47.1,44.8,30.00,SE,135,0.0,0.0,92,0.00,,,0.00,WUHU21623XXSP,2013-09-24 03:53:00,
2013-09-23 22:58:00,47.1,45.1,30.00,SE,135,0.0,0.0,93,0.00,,,0.00,WUHU21623XXSP,2013-09-24 03:58:00,
2013-09-23 23:01:00,47.1,45.1,30.00,SE,135,0.0,0.0,93,0.00,,,0.00,WUHU21623XXSP,2013-09-24 04:01:00,
2013-09-23 23:02:00,47.1,45.1,30.00,SE,135,0.0,0.0,93,0.00,,,0.00,WUHU21623XXSP,2013-09-24 04:02:00,
2013-09-23 23:07:00,46.9,44.9,30.00,SE,135,0.0,0.0,93,0.00,,,0.00,WUHU21623XXSP,2013-09-24 04:07:00,
2013-09-23 23:12:00,46.8,44.8,30.00,SE,135,0.0,0.0,93,0.00,,,0.00,WUHU21623XXSP,2013-09-24 04:12:00,
2013-09-23 23:17:00,46.8,44.8,30.00,SE,135,0.0,0.0,93,0.00,,,0.00,WUHU21623XXSP,2013-09-24 04:17:00,
2013-09-23 23:22:00,46.8,44.8,30.00,South,180,0.0,0.0,93,0.00,,,0.00,WUHU21623XXSP,2013-09-24 04:22:00,
2013-09-23 23:27:00,46.8,44.8,29.99,ESE,112,0.0,0.0,93,0.00,,,0.00,WUHU21623XXSP,2013-09-24 04:27:00,
2013-09-23 23:32:00,46.6,44.8,30.00,ESE,112,0.0,0.0,94,0.00,,,0.00,WUHU21623XXSP,2013-09-24 04:32:00,
2013-09-23 23:37:00,46.6,44.8,29.99,ESE,112,0.0,0.0,94,0.00,,,0.00,WUHU21623XXSP,2013-09-24 04:37:00,
2013-09-23 23:42:00,46.4,44.6,29.99,ESE,112,0.0,0.0,94,0.00,,,0.00,WUHU21623XXSP,2013-09-24 04:42:00,
2013-09-23 23:47:00,46.2,44.4,29.99,SE,135,0.0,0.0,94,0.00,,,0.00,WUHU21623XXSP,2013-09-24 04:47:00,
2013-09-23 23:52:00,46.2,44.4,29.99,SSE,157,0.0,0.0,94,0.00,,,0.00,WUHU21623XXSP,2013-09-24 04:52:00,
2013-09-23 23:57:00,46.2,44.4,29.99,SSE,157,0.0,0.0,94,0.00,,,0.00,WUHU21623XXSP,2013-09-24 04:57:00,